Time;durP1;ratioP1;P1;durP2;ratioP2;P2;SDS_P1;SDS_P2;PMS_P1;PMS_P2;Temp;Humidity;BMP_temperature;BMP_pressure;BME280_temperature;BME280_humidity;BME280_pressure;Samples;Min_cycle;Max_cycle;Signal;HPM_P1;HPM_P2
2023/12/27 00:01:30;;;;;;;5.40;3.00;;;7.10;99.90;;;;;;5040175;28;20546;-81
2023/12/27 00:03:56;;;;;;;8.27;3.07;;;7.10;99.90;;;;;;5048043;28;20476;-81
2023/12/27 00:06:23;;;;;;;6.70;2.70;;;7.10;99.90;;;;;;5048757;28;20461;-82
2023/12/27 00:08:52;;;;;;;5.47;3.00;;;7.00;99.90;;;;;;5047479;28;20517;-81
2023/12/27 00:11:19;;;;;;;3.40;2.40;;;7.00;99.90;;;;;;5046649;28;20478;-81
2023/12/27 00:13:48;;;;;;;10.20;3.33;;;7.00;99.90;;;;;;5047232;28;20448;-81
2023/12/27 00:16:15;;;;;;;6.10;2.73;;;6.90;99.90;;;;;;5043481;28;20446;-81
2023/12/27 00:18:41;;;;;;;5.30;2.80;;;6.90;99.90;;;;;;5048755;28;20509;-81
2023/12/27 00:21:08;;;;;;;6.67;2.80;;;6.90;99.90;;;;;;5054883;28;20485;-82
2023/12/27 00:23:35;;;;;;;6.70;2.50;;;6.80;99.90;;;;;;5051401;28;20486;-81
2023/12/27 00:26:03;;;;;;;7.63;2.50;;;6.90;99.90;;;;;;5049746;28;20525;-82
2023/12/27 00:28:30;;;;;;;6.10;2.30;;;6.90;99.90;;;;;;5048599;28;20461;-82
2023/12/27 00:30:57;;;;;;;9.13;2.97;;;6.90;99.90;;;;;;5048565;28;20554;-82
2023/12/27 00:33:24;;;;;;;11.40;3.10;;;6.90;99.90;;;;;;5046435;28;20477;-82
2023/12/27 00:35:50;;;;;;;9.20;3.40;;;6.90;99.90;;;;;;5043268;28;20479;-82
2023/12/27 00:38:17;;;;;;;5.63;3.43;;;6.90;99.90;;;;;;5043737;28;20492;-82
2023/12/27 00:40:44;;;;;;;6.57;2.67;;;6.80;99.90;;;;;;5045206;28;20481;-81
2023/12/27 00:43:12;;;;;;;5.83;2.30;;;6.80;99.90;;;;;;5044357;28;20459;-81
2023/12/27 00:45:39;;;;;;;4.67;2.60;;;6.80;99.90;;;;;;5048714;28;20453;-81
2023/12/27 00:48:06;;;;;;;4.47;2.60;;;6.80;99.90;;;;;;5054013;28;20453;-81
2023/12/27 00:50:33;;;;;;;4.93;2.00;;;6.80;99.90;;;;;;5044230;28;20850;-79
2023/12/27 00:53:00;;;;;;;4.93;2.60;;;6.70;99.90;;;;;;5038101;28;20462;-80
2023/12/27 00:55:27;;;;;;;3.87;2.23;;;6.70;99.90;;;;;;5046242;28;20485;-81
2023/12/27 00:57:53;;;;;;;6.80;3.30;;;6.70;99.90;;;;;;5048520;28;20478;-81
2023/12/27 01:00:22;;;;;;;3.87;2.80;;;6.60;99.90;;;;;;5040974;28;20503;-80
2023/12/27 01:02:48;;;;;;;4.50;2.33;;;6.60;99.90;;;;;;5045488;28;20445;-81
2023/12/27 01:05:15;;;;;;;8.33;3.57;;;6.50;99.90;;;;;;5043356;28;20540;-81
2023/12/27 01:07:42;;;;;;;7.27;3.80;;;6.50;99.90;;;;;;5042791;28;20831;-81
2023/12/27 01:10:09;;;;;;;8.73;3.00;;;6.50;99.90;;;;;;5048060;28;20488;-81
2023/12/27 01:12:36;;;;;;;9.47;3.10;;;6.50;99.90;;;;;;5044584;28;20553;-81
2023/12/27 01:15:04;;;;;;;5.27;2.63;;;6.40;99.90;;;;;;5043250;28;20724;-81
2023/12/27 01:17:32;;;;;;;5.50;2.60;;;6.40;99.90;;;;;;5044962;28;20488;-80
2023/12/27 01:19:59;;;;;;;5.83;2.80;;;6.30;99.90;;;;;;5044278;28;20488;-81
2023/12/27 01:22:25;;;;;;;7.43;3.00;;;6.30;99.90;;;;;;5043029;28;20973;-81
2023/12/27 01:24:52;;;;;;;10.50;3.60;;;6.20;99.90;;;;;;5043119;28;20480;-81
2023/12/27 01:27:19;;;;;;;7.03;2.90;;;6.20;99.90;;;;;;5043333;28;20537;-81
2023/12/27 01:29:46;;;;;;;7.77;2.90;;;6.20;99.90;;;;;;5045302;28;20610;-79
2023/12/27 01:32:13;;;;;;;8.63;2.97;;;6.10;99.90;;;;;;5043818;28;20516;-81
2023/12/27 01:34:41;;;;;;;9.33;3.20;;;6.10;99.90;;;;;;5044072;28;20463;-81
2023/12/27 01:37:07;;;;;;;6.80;2.37;;;6.00;99.90;;;;;;5044497;28;20452;-79
2023/12/27 01:39:34;;;;;;;6.57;2.67;;;6.00;99.90;;;;;;5042624;28;20505;-80
2023/12/27 01:42:02;;;;;;;8.47;2.60;;;5.90;99.90;;;;;;5044046;28;20564;-81
2023/12/27 01:44:29;;;;;;;6.50;2.90;;;5.80;99.90;;;;;;5040854;28;20548;-81
2023/12/27 01:46:56;;;;;;;8.07;3.10;;;5.80;99.90;;;;;;5042085;28;20519;-80
2023/12/27 01:49:23;;;;;;;8.53;2.70;;;5.70;99.90;;;;;;5043739;28;20445;-81
2023/12/27 01:51:51;;;;;;;7.47;2.80;;;5.60;99.90;;;;;;5043212;28;20520;-82
2023/12/27 01:54:18;;;;;;;9.70;2.37;;;5.60;99.90;;;;;;5042367;28;20851;-82
2023/12/27 01:56:45;;;;;;;4.50;2.57;;;5.60;99.90;;;;;;5042057;28;20469;-81
2023/12/27 01:59:12;;;;;;;9.40;2.93;;;5.50;99.90;;;;;;5044481;28;20540;-81
2023/12/27 02:01:40;;;;;;;6.50;2.30;;;5.40;99.90;;;;;;5042403;28;20890;-81
2023/12/27 02:04:06;;;;;;;4.60;2.40;;;5.40;99.90;;;;;;5040579;28;20461;-82
2023/12/27 02:06:34;;;;;;;4.40;2.47;;;5.40;99.90;;;;;;5042167;28;20464;-81
2023/12/27 02:09:03;;;;;;;6.43;2.60;;;5.30;99.90;;;;;;5041122;28;20488;-82
2023/12/27 02:11:30;;;;;;;9.97;2.93;;;5.20;99.90;;;;;;5042513;28;20502;-82
2023/12/27 02:13:57;;;;;;;8.60;4.47;;;5.20;99.90;;;;;;5043637;28;20467;-82
2023/12/27 02:16:23;;;;;;;10.33;2.97;;;5.20;99.90;;;;;;5041073;28;20560;-81
2023/12/27 02:18:50;;;;;;;12.27;3.33;;;5.20;99.90;;;;;;5042819;28;20583;-82
2023/12/27 02:21:18;;;;;;;6.67;2.43;;;5.10;99.90;;;;;;5041640;28;20472;-81
2023/12/27 02:23:49;;;;;;;4.93;2.77;;;5.10;99.90;;;;;;5044079;28;20517;-82
2023/12/27 02:26:17;;;;;;;7.70;2.97;;;5.10;99.90;;;;;;5049610;28;20452;-82
2023/12/27 02:28:46;;;;;;;9.00;2.93;;;5.10;99.90;;;;;;5046413;28;20455;-79
2023/12/27 02:31:13;;;;;;;7.50;2.60;;;5.10;99.90;;;;;;5049770;28;20516;-80
2023/12/27 02:33:43;;;;;;;7.67;3.80;;;5.10;99.90;;;;;;5048893;28;20452;-80
2023/12/27 02:36:10;;;;;;;7.77;3.47;;;5.20;99.90;;;;;;5050211;28;20512;-81
2023/12/27 02:38:36;;;;;;;4.60;2.87;;;5.20;99.90;;;;;;5048342;28;20494;-83
2023/12/27 02:41:03;;;;;;;6.57;2.83;;;5.30;99.90;;;;;;5048265;28;20528;-83
2023/12/27 02:43:32;;;;;;;9.10;3.13;;;5.30;99.90;;;;;;5049550;28;20546;-82
2023/12/27 02:45:59;;;;;;;6.33;3.40;;;5.40;99.90;;;;;;5044550;28;20523;-80
2023/12/27 02:48:26;;;;;;;5.37;2.80;;;5.40;99.90;;;;;;5043567;28;20514;-82
2023/12/27 02:50:53;;;;;;;7.00;3.30;;;5.40;99.90;;;;;;5042122;28;20545;-83
2023/12/27 02:53:19;;;;;;;5.30;3.10;;;5.40;99.90;;;;;;5036024;28;20465;-82
2023/12/27 02:55:46;;;;;;;7.67;3.23;;;5.40;99.90;;;;;;5045587;28;20479;-82
2023/12/27 02:58:14;;;;;;;8.33;3.27;;;5.40;99.90;;;;;;5046339;28;20636;-83
2023/12/27 03:00:42;;;;;;;7.40;3.87;;;5.40;99.90;;;;;;5046047;28;20471;-83
2023/12/27 03:03:10;;;;;;;11.93;2.80;;;5.40;99.90;;;;;;5043805;28;20468;-83
2023/12/27 03:05:37;;;;;;;8.90;3.30;;;5.30;99.90;;;;;;5046125;28;20552;-83
2023/12/27 03:08:04;;;;;;;6.97;3.03;;;5.30;99.90;;;;;;5047708;28;20456;-83
2023/12/27 03:10:30;;;;;;;13.33;3.37;;;5.30;99.90;;;;;;5044070;28;20563;-83
2023/12/27 03:12:57;;;;;;;10.60;3.10;;;5.30;99.90;;;;;;5042369;28;20478;-82
2023/12/27 03:15:24;;;;;;;10.00;4.37;;;5.30;99.90;;;;;;5041562;28;20555;-82
2023/12/27 03:17:52;;;;;;;9.43;3.97;;;5.20;99.90;;;;;;5041858;28;20467;-82
2023/12/27 03:20:18;;;;;;;8.50;3.17;;;5.20;99.90;;;;;;5043325;28;20583;-82
2023/12/27 03:22:45;;;;;;;4.20;3.00;;;5.20;99.90;;;;;;5044134;28;20533;-83
2023/12/27 03:25:12;;;;;;;9.43;3.87;;;5.20;99.90;;;;;;5043646;28;20464;-82
2023/12/27 03:27:39;;;;;;;11.27;4.03;;;5.20;99.90;;;;;;5044927;28;20460;-82
2023/12/27 03:30:07;;;;;;;8.30;4.00;;;5.20;99.90;;;;;;5044032;28;20503;-83
2023/12/27 03:32:34;;;;;;;7.93;3.73;;;5.20;99.90;;;;;;5042472;28;20493;-83
2023/12/27 03:35:02;;;;;;;7.83;4.30;;;5.20;99.90;;;;;;5041254;28;20474;-82
2023/12/27 03:37:29;;;;;;;12.60;5.33;;;5.20;99.90;;;;;;5042634;28;20481;-82
2023/12/27 03:39:56;;;;;;;12.37;4.00;;;5.10;99.90;;;;;;5045986;28;20491;-82
2023/12/27 03:42:22;;;;;;;10.67;4.57;;;5.20;99.90;;;;;;5045452;28;20456;-82
2023/12/27 03:44:52;;;;;;;14.33;4.27;;;5.20;99.90;;;;;;5051358;28;20559;-82
2023/12/27 03:47:19;;;;;;;9.80;4.40;;;5.20;99.90;;;;;;5039461;28;20452;-82
2023/12/27 03:49:46;;;;;;;10.10;4.57;;;5.20;99.90;;;;;;5047829;28;20459;-82
2023/12/27 03:52:14;;;;;;;7.63;4.23;;;5.20;99.90;;;;;;5045921;28;20458;-80
2023/12/27 03:54:41;;;;;;;16.57;3.90;;;5.20;99.90;;;;;;5047105;28;20543;-81
2023/12/27 03:57:08;;;;;;;5.90;3.73;;;5.20;99.90;;;;;;5046287;28;20499;-80
2023/12/27 03:59:37;;;;;;;8.53;4.40;;;5.20;99.90;;;;;;5047968;28;20505;-83
2023/12/27 04:02:05;;;;;;;13.23;4.93;;;5.20;99.90;;;;;;5050164;28;20491;-81
2023/12/27 04:04:31;;;;;;;8.53;4.47;;;5.20;99.90;;;;;;5050064;28;20483;-80
2023/12/27 04:06:58;;;;;;;7.53;4.70;;;5.20;99.90;;;;;;5051608;28;20492;-79
2023/12/27 04:09:26;;;;;;;8.87;4.53;;;5.20;99.90;;;;;;5047221;28;20455;-79
2023/12/27 04:11:53;;;;;;;11.40;5.27;;;5.30;99.90;;;;;;5047579;28;20562;-79
2023/12/27 04:14:20;;;;;;;7.10;4.33;;;5.30;99.90;;;;;;5046814;28;20459;-79
2023/12/27 04:16:46;;;;;;;11.43;4.43;;;5.30;99.90;;;;;;5040451;28;20449;-79
2023/12/27 04:19:13;;;;;;;10.07;4.40;;;5.30;99.90;;;;;;5046481;28;20491;-79
2023/12/27 04:21:41;;;;;;;8.50;4.50;;;5.30;99.90;;;;;;5048541;28;20484;-79
2023/12/27 04:24:09;;;;;;;18.53;5.00;;;5.30;99.90;;;;;;5051741;28;20467;-80
2023/12/27 04:26:39;;;;;;;11.20;5.37;;;5.30;99.90;;;;;;5057360;28;20453;-80
2023/12/27 04:29:07;;;;;;;13.70;5.30;;;5.30;99.90;;;;;;5055704;28;20448;-81
2023/12/27 04:31:33;;;;;;;12.93;5.47;;;5.30;99.90;;;;;;5056257;28;20541;-80
2023/12/27 04:34:00;;;;;;;9.13;4.27;;;5.30;99.90;;;;;;5056596;28;21004;-80
2023/12/27 04:36:27;;;;;;;13.00;5.17;;;5.40;99.90;;;;;;5056778;28;20452;-81
2023/12/27 04:38:54;;;;;;;11.47;4.60;;;5.40;99.90;;;;;;5054647;28;20555;-78
2023/12/27 04:41:21;;;;;;;11.93;5.00;;;5.40;99.90;;;;;;5055942;28;20556;-80
2023/12/27 04:43:49;;;;;;;8.17;5.53;;;5.50;99.90;;;;;;5056154;28;20452;-80
2023/12/27 04:46:16;;;;;;;10.37;4.17;;;5.50;99.90;;;;;;5056092;28;20466;-80
2023/12/27 04:48:43;;;;;;;7.13;4.90;;;5.50;99.90;;;;;;5050813;28;20455;-81
2023/12/27 04:51:10;;;;;;;12.67;4.20;;;5.50;99.90;;;;;;5054003;28;20563;-80
2023/12/27 04:53:37;;;;;;;11.97;5.60;;;5.60;99.90;;;;;;5056068;28;20544;-80
2023/12/27 04:56:04;;;;;;;13.23;5.20;;;5.60;99.90;;;;;;5053159;28;20478;-81
2023/12/27 04:58:35;;;;;;;15.33;5.27;;;5.60;99.90;;;;;;5055193;28;20490;-80
2023/12/27 05:01:04;;;;;;;10.57;4.70;;;5.60;99.90;;;;;;5050371;28;20495;-80
2023/12/27 05:03:31;;;;;;;10.50;6.10;;;5.60;99.90;;;;;;5051149;28;20455;-80
2023/12/27 05:05:57;;;;;;;10.53;4.90;;;5.60;99.90;;;;;;5052018;28;20532;-80
2023/12/27 05:08:24;;;;;;;7.47;4.83;;;5.70;99.90;;;;;;5051518;28;20535;-79
2023/12/27 05:10:51;;;;;;;14.93;5.20;;;5.70;99.90;;;;;;5046886;28;20475;-81
2023/12/27 05:13:18;;;;;;;9.53;5.97;;;5.70;99.90;;;;;;5049907;28;20456;-81
2023/12/27 05:15:46;;;;;;;10.20;5.17;;;5.70;99.90;;;;;;5051193;28;20449;-81
2023/12/27 05:18:15;;;;;;;15.50;6.13;;;5.80;99.90;;;;;;5049439;28;20521;-81
2023/12/27 05:20:41;;;;;;;17.03;5.60;;;5.80;99.90;;;;;;5046172;28;20492;-81
2023/12/27 05:23:08;;;;;;;12.37;5.50;;;5.80;99.90;;;;;;5045026;28;20460;-80
2023/12/27 05:25:36;;;;;;;12.47;4.93;;;5.90;99.90;;;;;;5045268;28;20449;-81
2023/12/27 05:28:03;;;;;;;11.10;4.70;;;5.90;99.90;;;;;;5049287;28;20523;-80
2023/12/27 05:30:31;;;;;;;8.03;4.90;;;5.90;99.90;;;;;;5050501;28;21073;-80
2023/12/27 05:32:58;;;;;;;11.03;5.63;;;6.00;99.90;;;;;;5052952;28;20468;-81
2023/12/27 05:35:26;;;;;;;9.60;5.07;;;6.00;99.90;;;;;;5052620;28;20538;-81
2023/12/27 05:37:52;;;;;;;14.50;4.83;;;5.90;99.90;;;;;;5050801;28;20499;-80
2023/12/27 05:40:19;;;;;;;10.53;5.63;;;6.00;99.90;;;;;;5050360;28;20484;-80
2023/12/27 05:42:46;;;;;;;16.57;5.27;;;6.00;99.90;;;;;;5050626;28;20539;-81
2023/12/27 05:45:13;;;;;;;10.33;4.33;;;5.90;99.90;;;;;;5053885;28;20453;-80
2023/12/27 05:47:40;;;;;;;9.73;4.67;;;6.00;99.90;;;;;;5053996;28;20460;-80
2023/12/27 05:50:09;;;;;;;11.23;5.30;;;6.10;99.90;;;;;;5052960;28;20536;-81
2023/12/27 05:52:37;;;;;;;11.33;4.90;;;6.00;99.90;;;;;;5049861;28;20506;-81
2023/12/27 05:55:05;;;;;;;11.33;4.27;;;6.10;99.90;;;;;;5052976;28;20528;-80
2023/12/27 05:57:32;;;;;;;6.93;3.90;;;6.10;99.90;;;;;;5054377;28;20512;-81
2023/12/27 05:59:59;;;;;;;12.47;4.60;;;6.00;99.90;;;;;;5053759;28;20549;-80
2023/12/27 06:02:25;;;;;;;16.57;4.63;;;6.10;99.90;;;;;;5051459;28;20513;-81
2023/12/27 06:04:52;;;;;;;7.17;3.97;;;6.10;99.90;;;;;;5054229;28;20477;-81
2023/12/27 06:07:19;;;;;;;4.13;3.00;;;6.10;99.90;;;;;;5053462;28;20480;-81
2023/12/27 06:09:47;;;;;;;7.23;3.80;;;6.10;99.90;;;;;;5054092;28;20515;-82
2023/12/27 06:12:14;;;;;;;8.97;4.40;;;6.20;99.90;;;;;;5051154;28;20449;-82
2023/12/27 06:14:41;;;;;;;16.00;4.43;;;6.10;99.90;;;;;;5048699;28;20457;-79
2023/12/27 06:17:07;;;;;;;12.07;4.00;;;6.20;99.90;;;;;;5057667;28;20468;-80
2023/12/27 06:19:36;;;;;;;10.70;3.30;;;6.20;99.90;;;;;;5058422;28;20493;-80
2023/12/27 06:22:03;;;;;;;9.27;3.90;;;6.20;99.90;;;;;;5058226;28;20511;-81
2023/12/27 06:24:31;;;;;;;9.07;3.87;;;6.20;99.90;;;;;;5051529;28;20441;-81
2023/12/27 06:26:59;;;;;;;9.10;3.07;;;6.20;99.90;;;;;;5051880;28;20456;-80
2023/12/27 06:29:25;;;;;;;10.90;3.40;;;6.30;99.90;;;;;;5048256;28;20442;-81
2023/12/27 06:31:53;;;;;;;9.83;3.67;;;6.30;99.90;;;;;;5048743;28;20568;-81
2023/12/27 06:34:19;;;;;;;10.03;3.87;;;6.40;99.90;;;;;;5051010;28;20540;-81
2023/12/27 06:36:47;;;;;;;10.60;3.60;;;6.40;99.90;;;;;;5040533;28;20449;-80
2023/12/27 06:39:14;;;;;;;7.43;3.60;;;6.50;99.90;;;;;;5043669;28;20453;-81
2023/12/27 06:41:41;;;;;;;8.60;3.20;;;6.50;99.90;;;;;;5041854;28;20500;-81
2023/12/27 06:44:09;;;;;;;8.00;3.80;;;6.50;99.90;;;;;;5042361;28;20457;-81
2023/12/27 06:46:36;;;;;;;5.30;2.83;;;6.60;99.90;;;;;;5044624;28;20532;-81
2023/12/27 06:49:03;;;;;;;8.63;3.13;;;6.70;99.90;;;;;;5048455;28;20545;-80
2023/12/27 06:51:30;;;;;;;9.00;3.43;;;6.60;99.90;;;;;;5051620;28;20515;-83
2023/12/27 06:53:57;;;;;;;9.20;3.80;;;6.70;99.90;;;;;;5051435;28;20516;-82
2023/12/27 06:56:23;;;;;;;8.80;3.03;;;6.80;99.90;;;;;;5053672;28;20480;-78
2023/12/27 06:58:50;;;;;;;8.00;3.37;;;6.90;99.90;;;;;;5054154;28;20524;-83
2023/12/27 07:01:18;;;;;;;10.17;2.80;;;6.90;99.90;;;;;;5054090;28;20572;-82
2023/12/27 07:03:45;;;;;;;8.30;3.07;;;6.90;99.90;;;;;;5054723;28;20516;-79
2023/12/27 07:06:12;;;;;;;6.90;2.80;;;7.00;99.90;;;;;;5054315;28;20533;-80
2023/12/27 07:08:39;;;;;;;8.90;3.77;;;7.00;99.90;;;;;;5054857;28;20473;-80
2023/12/27 07:11:05;;;;;;;7.73;2.90;;;7.10;99.90;;;;;;5053307;28;20541;-80
2023/12/27 07:13:32;;;;;;;8.57;2.87;;;7.10;99.90;;;;;;5054288;28;20455;-81
2023/12/27 07:15:59;;;;;;;5.40;3.00;;;7.00;99.90;;;;;;5053587;28;20516;-80
2023/12/27 07:18:27;;;;;;;4.87;2.90;;;7.10;99.90;;;;;;5053815;28;20495;-80
2023/12/27 07:20:54;;;;;;;9.73;3.67;;;7.10;99.90;;;;;;5053807;28;20506;-80
2023/12/27 07:23:21;;;;;;;6.10;2.87;;;7.10;99.90;;;;;;5050429;28;20500;-81
2023/12/27 07:25:48;;;;;;;7.27;2.63;;;7.20;99.90;;;;;;5053985;28;20504;-80
2023/12/27 07:28:15;;;;;;;9.43;3.03;;;7.20;99.90;;;;;;5054525;28;20672;-80
2023/12/27 07:30:42;;;;;;;8.87;3.47;;;7.20;99.90;;;;;;5054094;28;20491;-80
2023/12/27 07:33:09;;;;;;;7.00;3.37;;;7.30;99.90;;;;;;5056573;28;20461;-80
2023/12/27 07:35:37;;;;;;;8.30;3.90;;;7.20;99.90;;;;;;5053073;28;20548;-80
2023/12/27 07:38:04;;;;;;;9.73;2.63;;;7.20;99.90;;;;;;5051459;28;20548;-81
2023/12/27 07:40:31;;;;;;;17.70;4.00;;;7.30;99.90;;;;;;5052734;28;20579;-80
2023/12/27 07:42:58;;;;;;;10.07;3.30;;;7.30;99.90;;;;;;5054377;28;20481;-80
2023/12/27 07:45:24;;;;;;;9.87;3.13;;;7.40;99.90;;;;;;5053392;28;20519;-80
2023/12/27 07:47:51;;;;;;;6.37;2.90;;;7.40;99.90;;;;;;5054310;28;20517;-79
2023/12/27 07:50:18;;;;;;;9.53;3.10;;;7.50;99.90;;;;;;5052819;28;20609;-79
2023/12/27 07:52:46;;;;;;;9.10;3.90;;;7.50;99.90;;;;;;5052945;28;20526;-79
2023/12/27 07:55:14;;;;;;;9.70;4.47;;;7.50;99.90;;;;;;5052230;28;20511;-81
2023/12/27 07:57:41;;;;;;;7.57;3.53;;;7.50;99.90;;;;;;5049309;28;20450;-80
2023/12/27 08:00:10;;;;;;;9.57;3.17;;;7.60;99.90;;;;;;5049231;28;20493;-80
2023/12/27 08:02:37;;;;;;;9.90;3.83;;;7.60;99.90;;;;;;5049798;28;20468;-81
2023/12/27 08:05:04;;;;;;;5.80;3.60;;;7.60;99.90;;;;;;5050937;28;20453;-80
2023/12/27 08:07:31;;;;;;;5.53;3.70;;;7.60;99.90;;;;;;5039505;28;20489;-79
2023/12/27 08:09:59;;;;;;;7.53;3.37;;;7.70;99.90;;;;;;5037485;28;20885;-82
2023/12/27 08:12:26;;;;;;;8.83;3.80;;;7.70;99.90;;;;;;5039824;28;20557;-79
2023/12/27 08:14:53;;;;;;;6.13;2.90;;;7.80;99.90;;;;;;5041874;28;20537;-81
2023/12/27 08:17:20;;;;;;;6.83;3.60;;;7.90;99.90;;;;;;5043227;28;20560;-81
2023/12/27 08:19:46;;;;;;;4.13;2.93;;;7.90;99.90;;;;;;5042125;28;20543;-78
2023/12/27 08:22:13;;;;;;;5.40;3.10;;;7.90;99.90;;;;;;5041689;28;20543;-78
2023/12/27 08:24:40;;;;;;;6.07;3.37;;;7.90;99.90;;;;;;5043561;28;20458;-81
2023/12/27 08:27:08;;;;;;;7.60;3.20;;;8.00;99.90;;;;;;5042845;28;20542;-81
2023/12/27 08:29:35;;;;;;;10.63;3.10;;;8.00;99.90;;;;;;5050338;28;20532;-81
2023/12/27 08:32:02;;;;;;;5.30;3.53;;;8.10;99.90;;;;;;5040966;28;20474;-81
2023/12/27 08:34:29;;;;;;;5.70;3.50;;;8.10;99.90;;;;;;5041355;28;20464;-81
2023/12/27 08:36:56;;;;;;;6.00;3.90;;;8.20;99.90;;;;;;5045500;28;20455;-81
2023/12/27 08:39:23;;;;;;;6.80;4.00;;;8.20;99.90;;;;;;5044097;28;20898;-81
2023/12/27 08:41:51;;;;;;;5.20;3.37;;;8.20;99.90;;;;;;5038310;28;20498;-81
2023/12/27 08:44:19;;;;;;;6.90;3.10;;;8.20;99.90;;;;;;5041799;28;20458;-81
2023/12/27 08:46:46;;;;;;;6.80;3.10;;;8.20;99.90;;;;;;5041813;28;20545;-81
2023/12/27 08:49:13;;;;;;;4.50;2.63;;;8.30;99.90;;;;;;5041012;28;20485;-79
2023/12/27 08:51:40;;;;;;;5.80;3.30;;;8.20;99.90;;;;;;5035511;28;20958;-79
2023/12/27 08:54:07;;;;;;;6.27;3.00;;;8.30;99.90;;;;;;5038433;28;20452;-80
2023/12/27 08:56:34;;;;;;;5.13;3.23;;;8.30;99.90;;;;;;5036958;28;20513;-80
2023/12/27 08:59:00;;;;;;;4.10;2.27;;;8.30;99.90;;;;;;5036894;28;20448;-80
2023/12/27 09:01:28;;;;;;;5.77;3.10;;;8.40;99.90;;;;;;5036316;28;20493;-80
2023/12/27 09:03:55;;;;;;;6.90;3.50;;;8.40;99.90;;;;;;5035417;28;20461;-80
2023/12/27 09:06:22;;;;;;;3.60;3.10;;;8.40;99.90;;;;;;5036908;28;20958;-79
2023/12/27 09:08:49;;;;;;;5.57;2.60;;;8.50;99.90;;;;;;5036232;28;20869;-80
2023/12/27 09:11:18;;;;;;;4.30;3.37;;;8.50;99.90;;;;;;5036502;28;20486;-81
2023/12/27 09:13:45;;;;;;;4.30;2.80;;;8.50;99.90;;;;;;5037779;28;20464;-81
2023/12/27 09:16:11;;;;;;;7.83;2.70;;;8.50;99.90;;;;;;5037213;28;20458;-81
2023/12/27 09:18:40;;;;;;;4.40;3.30;;;8.50;99.90;;;;;;5035761;28;20959;-80
2023/12/27 09:21:06;;;;;;;7.40;3.03;;;8.60;99.90;;;;;;5033657;28;20492;-80
2023/12/27 09:23:33;;;;;;;2.70;2.00;;;8.50;99.90;;;;;;5036931;28;20910;-80
2023/12/27 09:25:59;;;;;;;3.97;2.60;;;8.60;99.90;;;;;;5036098;28;20545;-81
2023/12/27 09:28:27;;;;;;;8.47;3.07;;;8.70;99.90;;;;;;5033150;28;20471;-81
2023/12/27 09:30:54;;;;;;;6.50;2.37;;;8.70;99.90;;;;;;5037318;28;20232;-80
2023/12/27 09:33:21;;;;;;;3.07;2.20;;;8.70;99.90;;;;;;5030162;28;20517;-81
2023/12/27 09:35:49;;;;;;;5.57;2.63;;;8.80;99.90;;;;;;5032532;28;20479;-80
2023/12/27 09:38:16;;;;;;;4.13;2.47;;;8.80;99.90;;;;;;5034514;28;20518;-81
2023/12/27 09:40:43;;;;;;;4.83;2.93;;;8.90;99.90;;;;;;5035542;28;21015;-81
2023/12/27 09:43:12;;;;;;;4.53;2.50;;;8.90;99.90;;;;;;5039977;28;20451;-79
2023/12/27 09:45:41;;;;;;;6.10;2.63;;;9.00;99.90;;;;;;5044873;28;20479;-79
2023/12/27 09:48:11;;;;;;;4.13;2.40;;;9.00;99.90;;;;;;5035518;28;20538;-79
2023/12/27 09:50:39;;;;;;;3.53;2.53;;;9.10;99.90;;;;;;5040175;28;20475;-79
2023/12/27 09:53:10;;;;;;;5.07;2.63;;;9.10;99.90;;;;;;5035547;28;20463;-80
2023/12/27 09:55:37;;;;;;;3.50;2.27;;;9.10;99.90;;;;;;5035792;28;20978;-81
2023/12/27 09:58:05;;;;;;;2.90;2.47;;;9.10;99.90;;;;;;5037433;28;20451;-81
2023/12/27 10:00:34;;;;;;;3.93;2.70;;;9.20;99.90;;;;;;5036507;28;20556;-80
2023/12/27 10:03:05;;;;;;;3.00;2.17;;;9.10;99.90;;;;;;5035745;28;20475;-83
2023/12/27 10:05:41;;;;;;;2.83;1.80;;;9.10;99.90;;;;;;5036816;28;20450;-79
2023/12/27 10:08:11;;;;;;;5.27;2.37;;;9.10;99.90;;;;;;5017975;28;20450;-80
2023/12/27 10:10:38;;;;;;;3.47;2.20;;;9.10;99.90;;;;;;5036642;28;20479;-81
2023/12/27 10:13:06;;;;;;;5.50;2.90;;;9.10;99.90;;;;;;5037128;28;20531;-81
2023/12/27 10:15:33;;;;;;;10.07;3.13;;;9.10;99.90;;;;;;5031025;28;20984;-80
2023/12/27 10:18:00;;;;;;;6.77;2.30;;;9.10;99.90;;;;;;5027178;28;20454;-80
2023/12/27 10:20:36;;;;;;;3.27;2.37;;;9.20;99.90;;;;;;5036336;28;20480;-80
2023/12/27 10:23:03;;;;;;;3.67;1.90;;;9.10;99.90;;;;;;5036501;28;20485;-79
2023/12/27 10:25:32;;;;;;;3.30;2.03;;;9.10;99.90;;;;;;5035960;28;20532;-80
2023/12/27 10:27:59;;;;;;;3.80;2.10;;;9.20;99.90;;;;;;5035592;28;20467;-81
2023/12/27 10:30:26;;;;;;;2.97;2.10;;;9.10;99.90;;;;;;5035585;28;20491;-80
2023/12/27 10:32:59;;;;;;;3.53;1.90;;;9.20;99.90;;;;;;5035015;28;20545;-80
2023/12/27 10:35:27;;;;;;;3.50;1.93;;;9.30;99.90;;;;;;5035672;28;20549;-80
2023/12/27 10:38:00;;;;;;;6.10;2.43;;;9.30;99.90;;;;;;5036168;28;20499;-79
2023/12/27 10:40:27;;;;;;;2.77;1.90;;;9.30;99.90;;;;;;5028278;28;20570;-78
2023/12/27 10:42:55;;;;;;;2.10;1.60;;;9.40;99.90;;;;;;5034769;28;20527;-78
2023/12/27 10:45:23;;;;;;;2.80;1.90;;;9.40;99.90;;;;;;5030602;28;20468;-76
2023/12/27 10:47:57;;;;;;;3.70;1.70;;;9.40;99.90;;;;;;5035582;28;20493;-77
2023/12/27 10:50:26;;;;;;;2.07;1.70;;;9.50;99.90;;;;;;5027229;28;20545;-77
2023/12/27 10:53:00;;;;;;;3.17;1.97;;;9.50;99.90;;;;;;5034304;28;21243;-77
2023/12/27 10:55:29;;;;;;;2.83;2.10;;;9.60;99.90;;;;;;5029762;28;20806;-77
2023/12/27 10:58:00;;;;;;;4.10;2.27;;;9.60;99.90;;;;;;5034640;28;20454;-77
2023/12/27 11:00:28;;;;;;;4.97;2.33;;;9.60;99.90;;;;;;5033879;28;20548;-77
2023/12/27 11:02:57;;;;;;;2.50;2.07;;;9.60;99.90;;;;;;5035938;28;20452;-78
2023/12/27 11:05:25;;;;;;;3.30;1.70;;;9.70;99.90;;;;;;5033558;28;20991;-78
2023/12/27 11:07:53;;;;;;;8.00;1.90;;;9.70;99.90;;;;;;5035442;28;20459;-78
2023/12/27 11:10:22;;;;;;;4.80;2.07;;;9.70;99.90;;;;;;5033717;28;20483;-79
2023/12/27 11:12:50;;;;;;;5.43;2.80;;;9.80;99.90;;;;;;5034411;28;20482;-78
2023/12/27 11:15:19;;;;;;;2.50;1.90;;;9.80;99.90;;;;;;5035598;28;20539;-79
2023/12/27 11:17:48;;;;;;;2.33;1.60;;;9.80;99.90;;;;;;5036309;28;20915;-79
2023/12/27 11:20:16;;;;;;;2.60;1.57;;;9.70;99.90;;;;;;5035736;28;21836;-78
2023/12/27 11:22:44;;;;;;;2.53;1.77;;;9.90;99.90;;;;;;5035387;28;20492;-79
2023/12/27 11:25:12;;;;;;;2.10;1.37;;;9.80;99.90;;;;;;5036837;28;20469;-78
2023/12/27 11:27:40;;;;;;;5.30;1.80;;;9.90;99.90;;;;;;5036797;28;20455;-78
2023/12/27 11:30:11;;;;;;;3.13;1.60;;;10.00;99.90;;;;;;5035035;28;20504;-79
2023/12/27 11:32:41;;;;;;;1.93;1.50;;;10.10;99.90;;;;;;5033470;28;20463;-79
2023/12/27 11:35:09;;;;;;;2.20;1.37;;;10.20;99.90;;;;;;5035032;28;20486;-79
2023/12/27 11:37:51;;;;;;;2.20;1.50;;;10.20;99.90;;;;;;5036273;28;20518;-78
2023/12/27 11:40:35;;;;;;;1.83;1.20;;;10.30;99.90;;;;;;5035196;28;20566;-79
2023/12/27 11:43:04;;;;;;;2.33;1.70;;;10.40;99.90;;;;;;5035938;28;20506;-79
2023/12/27 11:45:56;;;;;;;2.20;1.50;;;10.40;99.90;;;;;;5036620;28;20514;-78
2023/12/27 11:48:24;;;;;;;3.27;1.87;;;10.40;99.90;;;;;;5037457;28;20444;-80
2023/12/27 11:50:51;;;;;;;1.80;1.10;;;10.40;99.90;;;;;;5036525;28;20566;-79
2023/12/27 11:53:19;;;;;;;2.70;1.67;;;10.50;99.90;;;;;;5036895;28;20466;-79
2023/12/27 11:55:47;;;;;;;2.70;1.17;;;10.60;99.90;;;;;;5036624;28;20452;-79
2023/12/27 11:58:15;;;;;;;2.10;1.20;;;10.60;99.90;;;;;;5037327;28;20455;-79
2023/12/27 12:00:42;;;;;;;2.30;1.53;;;10.60;99.90;;;;;;5040065;28;20471;-79
2023/12/27 12:03:18;;;;;;;1.80;1.03;;;10.60;99.90;;;;;;5038379;28;21001;-79
2023/12/27 12:06:08;;;;;;;3.10;1.70;;;10.70;99.90;;;;;;5039390;28;20459;-80
2023/12/27 12:08:42;;;;;;;1.70;1.00;;;10.80;99.90;;;;;;5040403;28;20483;-79
2023/12/27 12:11:13;;;;;;;2.63;1.40;;;10.70;99.90;;;;;;5039653;28;20479;-78
2023/12/27 12:13:40;;;;;;;2.67;1.27;;;10.80;99.90;;;;;;5017369;28;20826;-80
2023/12/27 12:16:08;;;;;;;2.23;1.20;;;10.80;99.90;;;;;;5039808;28;20456;-81
2023/12/27 12:18:35;;;;;;;2.03;1.20;;;10.70;99.90;;;;;;5038884;28;20547;-82
2023/12/27 12:21:04;;;;;;;3.20;1.20;;;10.80;99.90;;;;;;5040928;28;20546;-82
2023/12/27 12:23:31;;;;;;;1.90;1.10;;;10.70;99.90;;;;;;5040705;28;20459;-80
2023/12/27 12:26:00;;;;;;;2.27;1.00;;;10.80;99.90;;;;;;5040739;28;20455;-82
2023/12/27 12:28:27;;;;;;;2.00;1.20;;;10.80;99.90;;;;;;5042680;28;20461;-80
2023/12/27 12:30:55;;;;;;;1.90;1.30;;;10.80;99.90;;;;;;5039600;28;20480;-80
2023/12/27 12:33:23;;;;;;;1.80;1.10;;;10.80;99.90;;;;;;5040176;28;20527;-80
2023/12/27 12:35:50;;;;;;;1.67;1.07;;;10.80;99.90;;;;;;5044427;28;20453;-80
2023/12/27 12:38:19;;;;;;;3.03;1.50;;;10.80;99.90;;;;;;5043582;28;20448;-80
2023/12/27 12:40:47;;;;;;;2.23;1.17;;;10.90;99.90;;;;;;5044092;28;20496;-80
2023/12/27 12:43:15;;;;;;;1.87;1.20;;;10.80;99.90;;;;;;5044245;28;20522;-80
2023/12/27 12:45:43;;;;;;;1.87;1.00;;;10.60;99.90;;;;;;5043621;28;20463;-80
2023/12/27 12:48:10;;;;;;;2.13;1.07;;;10.60;99.90;;;;;;5043503;28;20467;-80
2023/12/27 12:50:37;;;;;;;1.97;1.00;;;10.60;99.90;;;;;;5043493;28;21052;-80
2023/12/27 12:53:14;;;;;;;2.83;1.30;;;10.60;99.90;;;;;;5043272;28;20460;-80
2023/12/27 12:55:44;;;;;;;2.60;1.10;;;10.50;99.90;;;;;;5044171;28;20526;-80